sensor_id;sensor_type;location;lat;lon;timestamp;pressure;altitude;pressure_sealevel;temperature;humidity
63552;BME280;49698;48.072;7.800;2023-05-21T00:02:25;98942.81;;;16.07;78.54
63552;BME280;49698;48.072;7.800;2023-05-21T00:04:55;98942.19;;;16.01;78.79
63552;BME280;49698;48.072;7.800;2023-05-21T00:07:23;98936.84;;;15.93;79.20
63552;BME280;49698;48.072;7.800;2023-05-21T00:09:51;98932.28;;;15.84;79.47
63552;BME280;49698;48.072;7.800;2023-05-21T00:12:21;98935.97;;;15.80;79.96
63552;BME280;49698;48.072;7.800;2023-05-21T00:14:49;98929.59;;;15.76;80.32
63552;BME280;49698;48.072;7.800;2023-05-21T00:17:17;98927.09;;;15.71;80.26
63552;BME280;49698;48.072;7.800;2023-05-21T00:19:45;98924.22;;;15.67;80.63
63552;BME280;49698;48.072;7.800;2023-05-21T00:22:13;98928.38;;;15.64;80.64
63552;BME280;49698;48.072;7.800;2023-05-21T00:24:41;98925.97;;;15.63;80.73
63552;BME280;49698;48.072;7.800;2023-05-21T00:27:11;98930.47;;;15.59;80.88
63552;BME280;49698;48.072;7.800;2023-05-21T00:29:41;98928.88;;;15.58;80.74
63552;BME280;49698;48.072;7.800;2023-05-21T00:32:10;98925.84;;;15.59;80.67
63552;BME280;49698;48.072;7.800;2023-05-21T00:34:37;98927.75;;;15.59;80.98
63552;BME280;49698;48.072;7.800;2023-05-21T00:37:05;98935.44;;;15.57;81.07
63552;BME280;49698;48.072;7.800;2023-05-21T00:39:35;98931.78;;;15.53;81.37
63552;BME280;49698;48.072;7.800;2023-05-21T00:42:03;98930.03;;;15.48;81.44
63552;BME280;49698;48.072;7.800;2023-05-21T00:44:32;98932.75;;;15.48;81.16
63552;BME280;49698;48.072;7.800;2023-05-21T00:47:03;98922.25;;;15.47;81.25
63552;BME280;49698;48.072;7.800;2023-05-21T00:49:32;98927.66;;;15.47;81.24
63552;BME280;49698;48.072;7.800;2023-05-21T00:52:00;98926.09;;;15.46;81.47
63552;BME280;49698;48.072;7.800;2023-05-21T00:54:29;98921.66;;;15.41;81.83
63552;BME280;49698;48.072;7.800;2023-05-21T00:56:57;98918.13;;;15.40;81.64
63552;BME280;49698;48.072;7.800;2023-05-21T00:59:25;98920.03;;;15.40;81.58
63552;BME280;49698;48.072;7.800;2023-05-21T01:01:54;98921.97;;;15.39;81.97
63552;BME280;49698;48.072;7.800;2023-05-21T01:04:24;98920.25;;;15.35;81.97
63552;BME280;49698;48.072;7.800;2023-05-21T01:06:52;98920.56;;;15.33;82.34
63552;BME280;49698;48.072;7.800;2023-05-21T01:09:21;98913.88;;;15.31;82.36
63552;BME280;49698;48.072;7.800;2023-05-21T01:11:50;98918.50;;;15.30;82.47
63552;BME280;49698;48.072;7.800;2023-05-21T01:14:19;98915.00;;;15.30;82.55
63552;BME280;49698;48.072;7.800;2023-05-21T01:16:48;98915.31;;;15.28;82.65
63552;BME280;49698;48.072;7.800;2023-05-21T01:19:19;98918.03;;;15.28;82.51
63552;BME280;49698;48.072;7.800;2023-05-21T01:21:51;98918.69;;;15.25;82.79
63552;BME280;49698;48.072;7.800;2023-05-21T01:24:21;98914.38;;;15.24;82.94
63552;BME280;49698;48.072;7.800;2023-05-21T01:26:49;98909.16;;;15.19;83.08
63552;BME280;49698;48.072;7.800;2023-05-21T01:29:18;98911.38;;;15.17;83.03
63552;BME280;49698;48.072;7.800;2023-05-21T01:31:53;98905.97;;;15.17;83.29
63552;BME280;49698;48.072;7.800;2023-05-21T01:34:28;98907.88;;;15.16;83.06
63552;BME280;49698;48.072;7.800;2023-05-21T01:37:03;98904.38;;;15.16;83.04
63552;BME280;49698;48.072;7.800;2023-05-21T01:39:38;98909.34;;;15.14;83.17
63552;BME280;49698;48.072;7.800;2023-05-21T01:42:11;98910.00;;;15.11;83.28
63552;BME280;49698;48.072;7.800;2023-05-21T01:44:40;98903.66;;;15.07;83.56
63552;BME280;49698;48.072;7.800;2023-05-21T01:47:09;98904.28;;;15.04;83.68
63552;BME280;49698;48.072;7.800;2023-05-21T01:49:37;98903.81;;;15.02;83.97
63552;BME280;49698;48.072;7.800;2023-05-21T01:52:05;98904.13;;;15.00;83.83
63552;BME280;49698;48.072;7.800;2023-05-21T01:54:33;98900.16;;;14.98;84.13
63552;BME280;49698;48.072;7.800;2023-05-21T01:57:03;98904.19;;;14.91;84.47
63552;BME280;49698;48.072;7.800;2023-05-21T01:59:31;98905.44;;;14.85;84.73
63552;BME280;49698;48.072;7.800;2023-05-21T02:02:00;98899.59;;;14.83;84.90
63552;BME280;49698;48.072;7.800;2023-05-21T02:04:28;98900.22;;;14.80;84.88
63552;BME280;49698;48.072;7.800;2023-05-21T02:06:57;98904.06;;;14.79;85.18
63552;BME280;49698;48.072;7.800;2023-05-21T02:09:25;98904.22;;;14.74;85.40
63552;BME280;49698;48.072;7.800;2023-05-21T02:11:53;98902.97;;;14.72;85.64
63552;BME280;49698;48.072;7.800;2023-05-21T02:14:22;98898.97;;;14.69;85.76
63552;BME280;49698;48.072;7.800;2023-05-21T02:16:51;98902.81;;;14.68;85.82
63552;BME280;49698;48.072;7.800;2023-05-21T02:19:19;98896.91;;;14.66;85.52
63552;BME280;49698;48.072;7.800;2023-05-21T02:21:47;98895.31;;;14.65;85.83
63552;BME280;49698;48.072;7.800;2023-05-21T02:24:15;98890.56;;;14.62;85.94
63552;BME280;49698;48.072;7.800;2023-05-21T02:26:43;98900.91;;;14.60;86.21
63552;BME280;49698;48.072;7.800;2023-05-21T02:29:11;98903.78;;;14.55;86.36
63552;BME280;49698;48.072;7.800;2023-05-21T02:31:40;98892.50;;;14.53;86.54
63552;BME280;49698;48.072;7.800;2023-05-21T02:34:09;98898.19;;;14.51;86.70
63552;BME280;49698;48.072;7.800;2023-05-21T02:36:37;98889.91;;;14.48;86.77
63552;BME280;49698;48.072;7.800;2023-05-21T02:39:07;98890.25;;;14.46;87.13
63552;BME280;49698;48.072;7.800;2023-05-21T02:41:35;98899.78;;;14.43;87.04
63552;BME280;49698;48.072;7.800;2023-05-21T02:44:03;98892.31;;;14.40;87.27
63552;BME280;49698;48.072;7.800;2023-05-21T02:46:31;98896.91;;;14.40;87.49
63552;BME280;49698;48.072;7.800;2023-05-21T02:49:01;98891.84;;;14.38;87.33
63552;BME280;49698;48.072;7.800;2023-05-21T02:51:29;98881.19;;;14.33;87.67
63552;BME280;49698;48.072;7.800;2023-05-21T02:53:57;98892.00;;;14.33;87.89
63552;BME280;49698;48.072;7.800;2023-05-21T02:56:25;98884.53;;;14.30;88.04
63552;BME280;49698;48.072;7.800;2023-05-21T02:58:53;98891.84;;;14.30;87.95
63552;BME280;49698;48.072;7.800;2023-05-21T03:01:21;98901.88;;;14.29;87.91
63552;BME280;49698;48.072;7.800;2023-05-21T03:03:49;98897.91;;;14.27;88.26
63552;BME280;49698;48.072;7.800;2023-05-21T03:06:18;98903.63;;;14.25;88.33
63552;BME280;49698;48.072;7.800;2023-05-21T03:08:46;98896.94;;;14.23;88.23
63552;BME280;49698;48.072;7.800;2023-05-21T03:11:14;98898.53;;;14.24;88.26
63552;BME280;49698;48.072;7.800;2023-05-21T03:13:42;98897.09;;;14.26;88.34
63552;BME280;49698;48.072;7.800;2023-05-21T03:16:10;98900.44;;;14.23;88.40
63552;BME280;49698;48.072;7.800;2023-05-21T03:18:39;98901.06;;;14.20;88.54
63552;BME280;49698;48.072;7.800;2023-05-21T03:21:08;98898.38;;;14.20;88.74
63552;BME280;49698;48.072;7.800;2023-05-21T03:23:40;98899.97;;;14.21;88.62
63552;BME280;49698;48.072;7.800;2023-05-21T03:26:08;98906.81;;;14.18;88.58
63552;BME280;49698;48.072;7.800;2023-05-21T03:28:37;98901.25;;;14.15;88.91
63552;BME280;49698;48.072;7.800;2023-05-21T03:31:05;98907.28;;;14.12;88.89
63552;BME280;49698;48.072;7.800;2023-05-21T03:34:01;98911.41;;;14.09;89.24
63552;BME280;49698;48.072;7.800;2023-05-21T03:36:30;98914.91;;;14.10;89.16
63552;BME280;49698;48.072;7.800;2023-05-21T03:38:59;98911.72;;;14.08;89.15
63552;BME280;49698;48.072;7.800;2023-05-21T03:41:29;98917.75;;;14.05;89.41
63552;BME280;49698;48.072;7.800;2023-05-21T03:44:04;98917.94;;;14.00;89.70
63552;BME280;49698;48.072;7.800;2023-05-21T03:46:44;98916.81;;;14.01;89.63
63552;BME280;49698;48.072;7.800;2023-05-21T03:49:21;98927.78;;;14.04;89.47
63552;BME280;49698;48.072;7.800;2023-05-21T03:51:52;98931.94;;;14.02;89.60
63552;BME280;49698;48.072;7.800;2023-05-21T03:54:22;98932.56;;;13.99;89.65
63552;BME280;49698;48.072;7.800;2023-05-21T03:56:54;98937.16;;;13.98;89.79
63552;BME280;49698;48.072;7.800;2023-05-21T03:59:23;98939.88;;;13.98;89.82
63552;BME280;49698;48.072;7.800;2023-05-21T04:01:51;98933.66;;;13.98;89.78
63552;BME280;49698;48.072;7.800;2023-05-21T04:04:20;98932.56;;;13.99;89.46
63552;BME280;49698;48.072;7.800;2023-05-21T04:06:49;98940.66;;;13.99;89.63
63552;BME280;49698;48.072;7.800;2023-05-21T04:09:22;98941.44;;;13.99;89.53
63552;BME280;49698;48.072;7.800;2023-05-21T04:11:51;98942.06;;;13.96;89.85
63552;BME280;49698;48.072;7.800;2023-05-21T04:14:19;98945.28;;;13.98;89.87
63552;BME280;49698;48.072;7.800;2023-05-21T04:16:47;98950.50;;;13.94;89.92
63552;BME280;49698;48.072;7.800;2023-05-21T04:19:15;98945.72;;;13.91;90.15
63552;BME280;49698;48.072;7.800;2023-05-21T04:21:43;98948.91;;;13.93;90.00
63552;BME280;49698;48.072;7.800;2023-05-21T04:24:13;98957.81;;;13.94;90.08
63552;BME280;49698;48.072;7.800;2023-05-21T04:26:49;98954.13;;;13.90;90.43
63552;BME280;49698;48.072;7.800;2023-05-21T04:29:17;98958.13;;;13.92;90.40
63552;BME280;49698;48.072;7.800;2023-05-21T04:31:48;98960.38;;;13.90;90.51
63552;BME280;49698;48.072;7.800;2023-05-21T04:34:16;98965.75;;;13.90;90.49
63552;BME280;49698;48.072;7.800;2023-05-21T04:36:44;98972.13;;;13.94;90.56
63552;BME280;49698;48.072;7.800;2023-05-21T04:39:13;98968.31;;;13.95;90.57
63552;BME280;49698;48.072;7.800;2023-05-21T04:41:42;98971.47;;;13.98;90.21
63552;BME280;49698;48.072;7.800;2023-05-21T04:44:11;98975.16;;;14.02;90.20
63552;BME280;49698;48.072;7.800;2023-05-21T04:46:42;98972.31;;;14.07;89.87
63552;BME280;49698;48.072;7.800;2023-05-21T04:49:11;98973.72;;;14.13;89.58
63552;BME280;49698;48.072;7.800;2023-05-21T04:51:40;98976.13;;;14.14;89.47
63552;BME280;49698;48.072;7.800;2023-05-21T04:54:08;98982.78;;;14.17;89.61
63552;BME280;49698;48.072;7.800;2023-05-21T04:56:36;98981.69;;;14.18;89.29
63552;BME280;49698;48.072;7.800;2023-05-21T04:59:04;98978.38;;;14.21;89.34
63552;BME280;49698;48.072;7.800;2023-05-21T05:01:34;98986.47;;;14.30;89.06
63552;BME280;49698;48.072;7.800;2023-05-21T05:04:04;98982.66;;;14.39;88.84
63552;BME280;49698;48.072;7.800;2023-05-21T05:06:32;98982.03;;;14.42;88.37
63552;BME280;49698;48.072;7.800;2023-05-21T05:09:00;98988.38;;;14.47;88.38
63552;BME280;49698;48.072;7.800;2023-05-21T05:11:29;98981.75;;;14.53;87.94
63552;BME280;49698;48.072;7.800;2023-05-21T05:13:57;98979.34;;;14.60;87.72
63552;BME280;49698;48.072;7.800;2023-05-21T05:16:25;98984.13;;;14.72;87.48
63552;BME280;49698;48.072;7.800;2023-05-21T05:18:57;98984.09;;;14.80;87.02
63552;BME280;49698;48.072;7.800;2023-05-21T05:21:25;98984.06;;;14.89;86.80
63552;BME280;49698;48.072;7.800;2023-05-21T05:23:53;98984.06;;;14.98;86.21
63552;BME280;49698;48.072;7.800;2023-05-21T05:26:25;98983.38;;;15.09;85.55
63552;BME280;49698;48.072;7.800;2023-05-21T05:28:54;98982.91;;;15.16;85.33
63552;BME280;49698;48.072;7.800;2023-05-21T05:31:22;98971.72;;;15.26;85.04
63552;BME280;49698;48.072;7.800;2023-05-21T05:33:51;98972.47;;;15.35;84.67
63552;BME280;49698;48.072;7.800;2023-05-21T05:36:22;98969.44;;;15.46;84.01
63552;BME280;49698;48.072;7.800;2023-05-21T05:38:51;98983.72;;;15.55;83.61
63552;BME280;49698;48.072;7.800;2023-05-21T05:41:19;98975.72;;;15.58;83.62
63552;BME280;49698;48.072;7.800;2023-05-21T05:43:48;98975.72;;;15.67;83.18
63552;BME280;49698;48.072;7.800;2023-05-21T05:46:17;98972.84;;;15.72;82.96
63552;BME280;49698;48.072;7.800;2023-05-21T05:48:45;98979.84;;;15.73;82.81
63552;BME280;49698;48.072;7.800;2023-05-21T05:51:14;98976.13;;;15.78;82.69
63552;BME280;49698;48.072;7.800;2023-05-21T05:53:44;98982.50;;;15.82;82.37
63552;BME280;49698;48.072;7.800;2023-05-21T05:56:12;98974.16;;;15.87;82.27
63552;BME280;49698;48.072;7.800;2023-05-21T05:58:40;98968.56;;;15.92;82.10
63552;BME280;49698;48.072;7.800;2023-05-21T06:01:10;98968.03;;;15.99;81.91
63552;BME280;49698;48.072;7.800;2023-05-21T06:03:39;98975.19;;;16.03;81.67
63552;BME280;49698;48.072;7.800;2023-05-21T06:06:10;98974.22;;;16.08;81.59
63552;BME280;49698;48.072;7.800;2023-05-21T06:08:39;98977.56;;;16.05;81.70
63552;BME280;49698;48.072;7.800;2023-05-21T06:11:08;98975.19;;;16.03;81.92
63552;BME280;49698;48.072;7.800;2023-05-21T06:13:36;98977.91;;;16.03;82.17
63552;BME280;49698;48.072;7.800;2023-05-21T06:16:05;98976.25;;;16.11;81.87
63552;BME280;49698;48.072;7.800;2023-05-21T06:18:35;98973.16;;;16.21;81.41
63552;BME280;49698;48.072;7.800;2023-05-21T06:21:04;98980.56;;;16.33;81.04
63552;BME280;49698;48.072;7.800;2023-05-21T06:23:32;98969.63;;;16.42;80.79
63552;BME280;49698;48.072;7.800;2023-05-21T06:26:03;98972.94;;;16.47;80.70
63552;BME280;49698;48.072;7.800;2023-05-21T06:28:33;98977.38;;;16.52;80.77
63552;BME280;49698;48.072;7.800;2023-05-21T06:31:02;98975.78;;;16.51;80.69
63552;BME280;49698;48.072;7.800;2023-05-21T06:33:31;98979.09;;;16.56;80.57
63552;BME280;49698;48.072;7.800;2023-05-21T06:36:00;98980.63;;;16.66;80.46
63552;BME280;49698;48.072;7.800;2023-05-21T06:38:28;98978.19;;;16.73;80.27
63552;BME280;49698;48.072;7.800;2023-05-21T06:40:57;98982.38;;;16.83;79.99
63552;BME280;49698;48.072;7.800;2023-05-21T06:43:42;98986.75;;;16.96;79.36
63552;BME280;49698;48.072;7.800;2023-05-21T06:46:29;98982.34;;;17.04;79.15
63552;BME280;49698;48.072;7.800;2023-05-21T06:48:57;98978.94;;;17.07;79.27
63552;BME280;49698;48.072;7.800;2023-05-21T06:51:26;98982.56;;;17.11;79.04
63552;BME280;49698;48.072;7.800;2023-05-21T06:53:54;98989.16;;;17.22;78.59
63552;BME280;49698;48.072;7.800;2023-05-21T06:56:22;98976.19;;;17.28;78.31
63552;BME280;49698;48.072;7.800;2023-05-21T06:58:54;98978.78;;;17.36;78.02
63552;BME280;49698;48.072;7.800;2023-05-21T07:01:22;98975.84;;;17.42;77.79
63552;BME280;49698;48.072;7.800;2023-05-21T07:03:50;98982.06;;;17.42;77.84
63552;BME280;49698;48.072;7.800;2023-05-21T07:06:18;98986.50;;;17.47;77.86
63552;BME280;49698;48.072;7.800;2023-05-21T07:08:46;98989.88;;;17.44;77.92
63552;BME280;49698;48.072;7.800;2023-05-21T07:11:15;98983.00;;;17.46;77.83
63552;BME280;49698;48.072;7.800;2023-05-21T07:13:44;98987.41;;;17.51;77.60
63552;BME280;49698;48.072;7.800;2023-05-21T07:16:13;98987.19;;;17.56;77.52
63552;BME280;49698;48.072;7.800;2023-05-21T07:18:43;98984.22;;;17.61;77.44
63552;BME280;49698;48.072;7.800;2023-05-21T07:21:12;98983.66;;;17.68;76.90
63552;BME280;49698;48.072;7.800;2023-05-21T07:23:40;98977.69;;;17.74;76.89
63552;BME280;49698;48.072;7.800;2023-05-21T07:26:09;98977.31;;;18.00;76.05
63552;BME280;49698;48.072;7.800;2023-05-21T07:28:37;98987.59;;;18.31;74.79
63552;BME280;49698;48.072;7.800;2023-05-21T07:31:05;98976.03;;;18.63;73.61
63552;BME280;49698;48.072;7.800;2023-05-21T07:33:40;98971.91;;;18.97;71.99
63552;BME280;49698;48.072;7.800;2023-05-21T07:36:10;98979.31;;;19.12;71.54
63552;BME280;49698;48.072;7.800;2023-05-21T07:38:39;98973.56;;;19.29;71.28
63552;BME280;49698;48.072;7.800;2023-05-21T07:41:08;98971.88;;;19.57;69.99
63552;BME280;49698;48.072;7.800;2023-05-21T07:43:37;98973.34;;;19.86;69.10
63552;BME280;49698;48.072;7.800;2023-05-21T07:46:05;98966.91;;;20.10;68.31
63552;BME280;49698;48.072;7.800;2023-05-21T07:48:34;98963.59;;;20.39;67.56
63552;BME280;49698;48.072;7.800;2023-05-21T07:51:05;98965.72;;;20.65;66.46
63552;BME280;49698;48.072;7.800;2023-05-21T07:53:33;98967.78;;;20.91;65.35
63552;BME280;49698;48.072;7.800;2023-05-21T07:56:05;98966.81;;;21.03;64.96
63552;BME280;49698;48.072;7.800;2023-05-21T07:58:33;98963.78;;;21.08;64.83
63552;BME280;49698;48.072;7.800;2023-05-21T08:01:02;98958.25;;;21.28;64.14
63552;BME280;49698;48.072;7.800;2023-05-21T08:03:31;98961.06;;;21.54;63.74
63552;BME280;49698;48.072;7.800;2023-05-21T08:06:01;98959.81;;;21.74;63.02
63552;BME280;49698;48.072;7.800;2023-05-21T08:08:31;98959.72;;;21.94;62.54
63552;BME280;49698;48.072;7.800;2023-05-21T08:10:59;98955.28;;;22.12;61.79
63552;BME280;49698;48.072;7.800;2023-05-21T08:13:28;98963.28;;;22.25;61.63
63552;BME280;49698;48.072;7.800;2023-05-21T08:15:56;98954.69;;;22.26;61.35
63552;BME280;49698;48.072;7.800;2023-05-21T08:18:25;98958.16;;;22.19;61.52
63552;BME280;49698;48.072;7.800;2023-05-21T08:20:55;98956.13;;;22.16;61.56
63552;BME280;49698;48.072;7.800;2023-05-21T08:23:24;98955.47;;;22.23;61.48
63552;BME280;49698;48.072;7.800;2023-05-21T08:25:56;98950.44;;;22.29;61.13
63552;BME280;49698;48.072;7.800;2023-05-21T08:28:24;98954.84;;;22.10;61.68
63552;BME280;49698;48.072;7.800;2023-05-21T08:30:53;98951.28;;;22.06;61.73
63552;BME280;49698;48.072;7.800;2023-05-21T08:33:23;98946.97;;;22.05;61.86
63552;BME280;49698;48.072;7.800;2023-05-21T08:35:51;98941.44;;;22.02;62.12
63552;BME280;49698;48.072;7.800;2023-05-21T08:38:26;98942.78;;;21.85;62.58
63552;BME280;49698;48.072;7.800;2023-05-21T08:41:11;98948.03;;;21.70;63.09
63552;BME280;49698;48.072;7.800;2023-05-21T08:43:42;98954.94;;;21.61;63.65
63552;BME280;49698;48.072;7.800;2023-05-21T08:46:10;98953.22;;;21.53;63.87
63552;BME280;49698;48.072;7.800;2023-05-21T08:48:39;98949.97;;;21.43;65.16
63552;BME280;49698;48.072;7.800;2023-05-21T08:51:08;98946.31;;;21.36;65.11
63552;BME280;49698;48.072;7.800;2023-05-21T08:53:41;98941.28;;;21.38;65.16
63552;BME280;49698;48.072;7.800;2023-05-21T08:56:15;98944.75;;;21.35;65.22
63552;BME280;49698;48.072;7.800;2023-05-21T08:58:52;98944.31;;;21.33;65.13
63552;BME280;49698;48.072;7.800;2023-05-21T09:01:24;98947.66;;;21.22;65.74
63552;BME280;49698;48.072;7.800;2023-05-21T09:04:03;98939.97;;;21.09;65.75
63552;BME280;49698;48.072;7.800;2023-05-21T09:06:39;98957.22;;;21.13;66.44
63552;BME280;49698;48.072;7.800;2023-05-21T09:09:13;98954.50;;;21.13;66.51
63552;BME280;49698;48.072;7.800;2023-05-21T09:11:48;98950.31;;;21.19;65.76
63552;BME280;49698;48.072;7.800;2023-05-21T09:14:17;98954.38;;;21.29;65.70
63552;BME280;49698;48.072;7.800;2023-05-21T09:16:58;98951.91;;;21.43;65.63
63552;BME280;49698;48.072;7.800;2023-05-21T09:19:26;98946.19;;;21.52;64.94
63552;BME280;49698;48.072;7.800;2023-05-21T09:22:00;98946.13;;;21.48;65.35
63552;BME280;49698;48.072;7.800;2023-05-21T09:24:30;98954.44;;;21.55;65.09
63552;BME280;49698;48.072;7.800;2023-05-21T09:27:05;98954.13;;;21.60;65.16
63552;BME280;49698;48.072;7.800;2023-05-21T09:29:33;98952.94;;;21.58;65.08
63552;BME280;49698;48.072;7.800;2023-05-21T09:32:05;98950.19;;;21.58;64.85
63552;BME280;49698;48.072;7.800;2023-05-21T09:34:35;98942.41;;;21.60;64.73
63552;BME280;49698;48.072;7.800;2023-05-21T09:37:05;98950.59;;;21.60;64.59
63552;BME280;49698;48.072;7.800;2023-05-21T09:39:38;98951.31;;;21.53;64.73
63552;BME280;49698;48.072;7.800;2023-05-21T09:42:09;98947.75;;;21.53;64.96
63552;BME280;49698;48.072;7.800;2023-05-21T09:44:38;98951.34;;;21.57;64.82
63552;BME280;49698;48.072;7.800;2023-05-21T09:47:07;98943.03;;;21.49;65.07
63552;BME280;49698;48.072;7.800;2023-05-21T09:49:36;98941.38;;;21.45;65.50
63552;BME280;49698;48.072;7.800;2023-05-21T09:52:05;98942.53;;;21.44;65.82
63552;BME280;49698;48.072;7.800;2023-05-21T09:54:35;98944.22;;;21.52;66.39
63552;BME280;49698;48.072;7.800;2023-05-21T09:57:03;98939.31;;;21.61;65.68
63552;BME280;49698;48.072;7.800;2023-05-21T09:59:36;98939.00;;;21.66;66.28
63552;BME280;49698;48.072;7.800;2023-05-21T10:02:15;98935.19;;;21.74;65.92
63552;BME280;49698;48.072;7.800;2023-05-21T10:04:47;98931.84;;;21.85;65.78
63552;BME280;49698;48.072;7.800;2023-05-21T10:07:17;98931.19;;;21.95;65.42
63552;BME280;49698;48.072;7.800;2023-05-21T10:09:46;98931.72;;;22.04;64.92
63552;BME280;49698;48.072;7.800;2023-05-21T10:12:16;98927.06;;;22.08;65.03
63552;BME280;49698;48.072;7.800;2023-05-21T10:14:50;98929.81;;;22.08;65.15
63552;BME280;49698;48.072;7.800;2023-05-21T10:17:21;98922.75;;;22.07;65.23
63552;BME280;49698;48.072;7.800;2023-05-21T10:19:50;98926.25;;;22.04;65.21
63552;BME280;49698;48.072;7.800;2023-05-21T10:22:19;98920.66;;;21.97;65.44
63552;BME280;49698;48.072;7.800;2023-05-21T10:24:47;98918.72;;;21.97;65.51
63552;BME280;49698;48.072;7.800;2023-05-21T10:27:16;98912.13;;;22.02;65.43
63552;BME280;49698;48.072;7.800;2023-05-21T10:29:45;98915.69;;;22.06;65.65
63552;BME280;49698;48.072;7.800;2023-05-21T10:32:15;98910.38;;;22.17;65.04
63552;BME280;49698;48.072;7.800;2023-05-21T10:34:43;98908.97;;;22.30;64.88
63552;BME280;49698;48.072;7.800;2023-05-21T10:37:12;98908.19;;;22.30;65.11
63552;BME280;49698;48.072;7.800;2023-05-21T10:39:42;98912.94;;;22.33;64.90
63552;BME280;49698;48.072;7.800;2023-05-21T10:42:18;98911.75;;;22.34;64.92
63552;BME280;49698;48.072;7.800;2023-05-21T10:45:04;98910.22;;;22.36;64.85
63552;BME280;49698;48.072;7.800;2023-05-21T10:47:47;98900.63;;;22.50;64.60
63552;BME280;49698;48.072;7.800;2023-05-21T10:53:24;98901.22;;;22.69;63.92
63552;BME280;49698;48.072;7.800;2023-05-21T10:56:04;98893.81;;;22.74;64.12
63552;BME280;49698;48.072;7.800;2023-05-21T10:59:08;98889.53;;;22.76;64.47
63552;BME280;49698;48.072;7.800;2023-05-21T11:01:39;98893.47;;;22.79;63.96
63552;BME280;49698;48.072;7.800;2023-05-21T11:04:09;98883.41;;;22.90;64.32
63552;BME280;49698;48.072;7.800;2023-05-21T11:06:45;98890.94;;;22.97;63.58
63552;BME280;49698;48.072;7.800;2023-05-21T11:09:14;98895.59;;;22.96;63.18
63552;BME280;49698;48.072;7.800;2023-05-21T11:11:44;98887.06;;;23.01;63.28
63552;BME280;49698;48.072;7.800;2023-05-21T11:14:28;98882.78;;;23.07;63.52
63552;BME280;49698;48.072;7.800;2023-05-21T11:16:58;98884.06;;;23.17;63.01
63552;BME280;49698;48.072;7.800;2023-05-21T11:19:35;98887.63;;;23.25;62.69
63552;BME280;49698;48.072;7.800;2023-05-21T11:22:05;98888.03;;;23.27;62.62
63552;BME280;49698;48.072;7.800;2023-05-21T11:24:39;98880.25;;;23.32;62.88
63552;BME280;49698;48.072;7.800;2023-05-21T11:27:09;98889.38;;;23.47;62.28
63552;BME280;49698;48.072;7.800;2023-05-21T11:29:39;98886.31;;;23.59;61.84
63552;BME280;49698;48.072;7.800;2023-05-21T11:32:09;98887.59;;;23.73;61.29
63552;BME280;49698;48.072;7.800;2023-05-21T11:34:41;98881.31;;;23.72;61.11
63552;BME280;49698;48.072;7.800;2023-05-21T11:37:31;98883.72;;;23.81;60.87
63552;BME280;49698;48.072;7.800;2023-05-21T11:40:17;98874.34;;;23.89;60.54
63552;BME280;49698;48.072;7.800;2023-05-21T11:42:49;98870.41;;;23.83;60.58
63552;BME280;49698;48.072;7.800;2023-05-21T11:45:19;98869.66;;;23.86;60.68
63552;BME280;49698;48.072;7.800;2023-05-21T11:47:48;98873.19;;;23.90;60.41
63552;BME280;49698;48.072;7.800;2023-05-21T11:50:19;98872.44;;;23.93;60.36
63552;BME280;49698;48.072;7.800;2023-05-21T11:52:48;98877.56;;;24.05;59.91
63552;BME280;49698;48.072;7.800;2023-05-21T11:55:20;98874.44;;;24.10;59.51
63552;BME280;49698;48.072;7.800;2023-05-21T11:57:51;98879.53;;;24.12;59.22
63552;BME280;49698;48.072;7.800;2023-05-21T12:00:19;98876.03;;;24.11;59.40
63552;BME280;49698;48.072;7.800;2023-05-21T12:02:50;98872.94;;;24.20;59.35
63552;BME280;49698;48.072;7.800;2023-05-21T12:05:19;98876.06;;;24.19;58.89
63552;BME280;49698;48.072;7.800;2023-05-21T12:07:48;98876.06;;;24.22;58.86
63552;BME280;49698;48.072;7.800;2023-05-21T12:10:19;98871.78;;;24.28;58.84
63552;BME280;49698;48.072;7.800;2023-05-21T12:12:51;98863.53;;;24.35;58.51
63552;BME280;49698;48.072;7.800;2023-05-21T12:15:21;98874.59;;;24.46;58.32
63552;BME280;49698;48.072;7.800;2023-05-21T12:17:52;98867.94;;;24.54;57.70
63552;BME280;49698;48.072;7.800;2023-05-21T12:20:24;98868.34;;;24.53;57.71
63552;BME280;49698;48.072;7.800;2023-05-21T12:22:53;98869.13;;;24.57;57.46
63552;BME280;49698;48.072;7.800;2023-05-21T12:25:21;98867.16;;;24.57;57.82
63552;BME280;49698;48.072;7.800;2023-05-21T12:27:49;98864.44;;;24.64;57.85
63552;BME280;49698;48.072;7.800;2023-05-21T12:30:23;98873.47;;;24.65;57.43
63552;BME280;49698;48.072;7.800;2023-05-21T12:32:51;98874.25;;;24.65;57.81
63552;BME280;49698;48.072;7.800;2023-05-21T12:35:22;98876.22;;;24.69;57.29
63552;BME280;49698;48.072;7.800;2023-05-21T12:37:50;98884.84;;;24.63;57.79
63552;BME280;49698;48.072;7.800;2023-05-21T12:40:19;98895.81;;;24.56;57.79
63552;BME280;49698;48.072;7.800;2023-05-21T12:42:48;98892.28;;;24.52;57.78
63552;BME280;49698;48.072;7.800;2023-05-21T12:45:16;98884.84;;;24.56;57.54
63552;BME280;49698;48.072;7.800;2023-05-21T12:47:49;98884.06;;;24.63;57.28
63552;BME280;49698;48.072;7.800;2023-05-21T12:50:22;98882.47;;;24.51;57.28
63552;BME280;49698;48.072;7.800;2023-05-21T12:52:53;98888.28;;;24.32;58.14
63552;BME280;49698;48.072;7.800;2023-05-21T12:55:22;98896.47;;;24.25;58.37
63552;BME280;49698;48.072;7.800;2023-05-21T12:58:01;98896.38;;;24.03;58.81
63552;BME280;49698;48.072;7.800;2023-05-21T13:00:31;98896.31;;;23.89;59.46
63552;BME280;49698;48.072;7.800;2023-05-21T13:02:59;98895.06;;;23.76;59.31
63552;BME280;49698;48.072;7.800;2023-05-21T13:05:29;98903.97;;;23.62;59.91
63552;BME280;49698;48.072;7.800;2023-05-21T13:07:57;98895.69;;;23.51;60.18
63552;BME280;49698;48.072;7.800;2023-05-21T13:10:25;98894.47;;;23.49;60.24
63552;BME280;49698;48.072;7.800;2023-05-21T13:12:53;98898.38;;;23.44;60.42
63552;BME280;49698;48.072;7.800;2023-05-21T13:15:21;98901.47;;;23.42;60.33
63552;BME280;49698;48.072;7.800;2023-05-21T13:17:49;98902.28;;;23.43;60.39
63552;BME280;49698;48.072;7.800;2023-05-21T13:20:18;98904.59;;;23.41;60.42